You are listening to:
KSNA Del/Gnd - Santa Ana, California, United States

KSNA 241953Z 27006KT 10SM FEW065 FEW075 FEW150 28/16 A3002 RMK AO2 SLP164 CB DSNT E TCU DSNT N-NE T02780161 $

If stream doesn't start automatically press the play button
If stream stops then reload player then press play